Max Planck — ELZY8 — position and weather

sailwx.info

Track history (hours):
 
Tides and Currents Weather Stations Pressure Air Temp Water Temp Dewpoint Dewpoint Depression Visibility Wind Speed Wind Dir Waves Ship Positions

Max Planck

Last reported at 2017-Aug-22 10:58 UTC. Time now 2017-Aug-22 11:05 UTC.
Position N 31°43' E 121°08'.

Length 99.9 m; beam 16.2 m; draft 6.8 m.

Type: Ship. MMSI: 636017362.

Date/timePositionNaut miles runAvg speedWind from/ knotsBaromVisibWave heightAir tempDewpointWater temp
2017-Aug-22 10:58N 31°43' E 121°08'4 8.6
2017-Aug-22 10:29N 31°41' E 121°11'4 8.5
2017-Aug-22 09:58N 31°38' E 121°15'4 9.0
2017-Aug-22 09:30N 31°35' E 121°18'5 9.5
2017-Aug-22 09:00N 31°31' E 121°23'5 9.8
2017-Aug-22 08:30N 31°29' E 121°27'4 8.1
2017-Aug-22 08:00N 31°25' E 121°30'3 6.3
2017-Aug-22 07:30N 31°24' E 121°34'4 8.0
2017-Aug-22 06:59N 31°22' E 121°38'4 8.8
2017-Aug-22 06:29N 31°19' E 121°42'610.0
2017-Aug-22 05:53N 31°15' E 121°47'  
Track history (hours):
 
Tides and Currents Weather Stations Pressure Air Temp Water Temp Dewpoint Dewpoint Depression Visibility Wind Speed Wind Dir Waves Ship Positions

Max Planck

Last reported at 2017-Aug-22 10:58 UTC. Time now 2017-Aug-22 11:05 UTC.
Position N 31°43' E 121°08'.

Length 99.9 m; beam 16.2 m; draft 6.8 m.

Type: Ship. MMSI: 636017362.

Date/timePositionNaut miles runAvg speedWind from/ knotsBaromVisibWave heightAir tempDewpointWater temp
2017-Aug-22 10:58N 31°43' E 121°08'4 8.6
2017-Aug-22 10:29N 31°41' E 121°11'4 8.5
2017-Aug-22 09:58N 31°38' E 121°15'4 9.0
2017-Aug-22 09:30N 31°35' E 121°18'5 9.5
2017-Aug-22 09:00N 31°31' E 121°23'5 9.8
2017-Aug-22 08:30N 31°29' E 121°27'4 8.1
2017-Aug-22 08:00N 31°25' E 121°30'3 6.3
2017-Aug-22 07:30N 31°24' E 121°34'4 8.0
2017-Aug-22 06:59N 31°22' E 121°38'4 8.8
2017-Aug-22 06:29N 31°19' E 121°42'610.0
2017-Aug-22 05:53N 31°15' E 121°47'  

Dump ship's entire track history